This is the latest recevied weather packets stored in our database for station/object N6GPM. If no packets are shown the sender has not sent any weather packets the latest 10 day(s).
| Time | Temp. | Humidity | Pressure | Rain* | Wind** | Luminosity | Snow |
|---|---|---|---|---|---|---|---|
| 1778088772 | 16.67° C | 62% | 1021.7 hPa | 0 mm | - | 842 W/m² | - |
| 1778088469 | 16.67° C | 63% | 1021.7 hPa | 0 mm | - | 841 W/m² | - |
| 1778088165 | 17.22° C | 62% | 1022.1 hPa | 0 mm | - | 832 W/m² | - |
| 1778087863 | 17.78° C | 61% | 1021.9 hPa | 0 mm | - | 815 W/m² | - |
| 1778087560 | 17.22° C | 61% | 1022 hPa | 0 mm | - | 802 W/m² | - |
| 1778087258 | 16.67° C | 62% | 1022 hPa | 0 mm | - | 804 W/m² | - |
| 1778086954 | 16.11° C | 64% | 1021.9 hPa | 0 mm | - | 760 W/m² | - |
| 1778086653 | 15.56° C | 65% | 1022 hPa | 0 mm | - | 688 W/m² | - |
| 1778086349 | 15.56° C | 65% | 1021.8 hPa | 0 mm | - | 662 W/m² | - |
| 1778086047 | 16.11° C | 65% | 1022 hPa | 0 mm | - | 715 W/m² | - |
| 1778085743 | 15.56° C | 65% | 1022 hPa | 0 mm | - | 682 W/m² | - |
| 1778085440 | 15° C | 66% | 1021.9 hPa | 0 mm | - | 679 W/m² | - |
| 1778085135 | 15° C | 67% | 1022 hPa | 0 mm | - | 659 W/m² | - |
| 1778084831 | 14.44° C | 69% | 1021.9 hPa | 0 mm | - | 623 W/m² | - |
| 1778084529 | 15° C | 68% | 1022 hPa | 0 mm | - | 606 W/m² | - |
| 1778084226 | 14.44° C | 70% | 1021.8 hPa | 0 mm | - | 593 W/m² | - |
| 1778083923 | 14.44° C | 69% | 1021.7 hPa | 0 mm | - | 563 W/m² | - |
| 1778083621 | 14.44° C | 69% | 1021.8 hPa | 0 mm | - | 537 W/m² | - |
| 1778083317 | 14.44° C | 70% | 1022 hPa | 0 mm | - | 519 W/m² | - |
| 1778083016 | 13.89° C | 71% | 1021.8 hPa | 0 mm | - | 497 W/m² | - |
| 1778082712 | 13.89° C | 71% | 1021.8 hPa | 0 mm | - | 478 W/m² | - |
| 1778081574 | 12.78° C | 77% | 1021.6 hPa | 0 mm | - | 377 W/m² | - |
| 1778081271 | 12.78° C | 77% | 1021.7 hPa | 0 mm | - | 355 W/m² | - |
| 1778080969 | 12.78° C | 77% | 1021.7 hPa | 0 mm | - | 330 W/m² | - |
| 1778080668 | 12.78° C | 79% | 1021.8 hPa | 0 mm | - | 305 W/m² | - |
* Rain latest hour (hover to see other rain measurements)
** Current wind speed in m/s (hover to see current wind gust speed)